XML Sitemap

This is a XML Sitemap which is supposed to be processed by search engines which follow the XML Sitemap standard like Ask.com, Bing, Google and Yahoo.
It was generated using the Blogging-Software WordPress and the Google Sitemap Generator Plugin by Arne Brachhold.
You can find more information about XML sitemaps on sitemaps.org and Google's list of sitemap programs.

URLPriorityChange frequencyLast modified (GMT)
https://www.naswgr.net/2016/01/20/6174582g1-ge-6174582g1-shunt-trip-coil/20%Monthly2016-01-20 20:09
https://www.naswgr.net/2016/01/18/tc35365-ge-tc35365-heavy-duty-safety-switch/20%Monthly2016-01-18 15:46
https://www.naswgr.net/2016/01/15/cr2810a14ag102-ge-cr2810a14ag102-machine-tool-relay-unused-surplus/20%Monthly2016-01-15 21:24
https://www.naswgr.net/2016/01/14/westinghouse-wli-operating-mechanism/20%Monthly2016-01-14 18:12
https://www.naswgr.net/2016/01/14/39411-allis-chalmers-39411-glass-fuse-for-pt-drawer/20%Monthly2016-01-14 14:29
https://www.naswgr.net/2016/01/12/0177c5050g006-ge-0177c5050g006-powervac-charging-motor-for-vb1-circuit-breaker/20%Monthly2016-01-12 17:51
https://www.naswgr.net/2016/01/12/18-657-514-567-siemens-allis-18-657-514-567-motor-cutoff-switch/20%Monthly2016-01-12 15:31
https://www.naswgr.net/2016/01/11/fal36050-square-d-fal36050-circuit-breaker-unused-surplus/20%Monthly2016-01-11 20:16
https://www.naswgr.net/2016/01/11/cc30114d01-westinghouse-cc30114d01-db-50-close-coil-rectifier/20%Monthly2016-01-11 21:32
https://www.naswgr.net/2016/01/11/0209b4825p001-general-electric-powell-0209b4825p001-auxiliary-switch-for-type-vb1-breaker-with-ml-18-mech/20%Monthly2016-01-11 18:49
https://www.naswgr.net/2016/01/11/magneblast-elevating-motor-for-ge-switchgear/20%Monthly2016-01-11 17:44
https://www.naswgr.net/2016/01/11/fb3070-westinghouse-fb3070-circuit-breaker-unused-surplus/20%Monthly2016-01-11 16:06
https://www.naswgr.net/2016/01/11/fd3015l-cutler-hammer-westinghouse-fd3015l-circuit-breaker-unused-surplus/20%Monthly2016-01-11 14:46
https://www.naswgr.net/2016/01/09/18-811-732-002-siemens-18-811-732-002-charging-motor-for-type-gmi-breaker/20%Monthly2016-01-09 15:00
https://www.naswgr.net/2016/01/09/449d431h22-eaton-449d431h22-charging-motor/20%Monthly2016-01-09 14:42
https://www.naswgr.net/2016/01/08/680c792g03-cutler-hammer-eaton-westinghouse-insulating-link-pushlink-for-type-ds-632-breaker/20%Monthly2016-01-08 18:34
https://www.naswgr.net/2016/01/07/673x121791-ge-673x121791-voltage-transformer-type-jvm-3c/20%Monthly2016-01-07 20:38
https://www.naswgr.net/2016/01/07/fdc3030v-cutler-hammer-fdc3030v-circuit-breaker-30-amp-unused-surplus/20%Monthly2016-01-07 18:17
https://www.naswgr.net/2016/01/07/ted136030-ge-ted136030-circuit-breaker-30-amp-unused-surplus/20%Monthly2016-01-07 16:57
https://www.naswgr.net/2016/01/07/ted136100-ge-ted136100-circuit-breaker-100-amp-unused-surplus/20%Monthly2016-01-07 16:17
https://www.naswgr.net/2016/01/07/ted136050-ge-ted136050-circuit-breaker-40-amp-unused-surplus/20%Monthly2016-01-07 15:16
https://www.naswgr.net/2016/01/07/qmr326-ge-qmr326-fusible-panelboard-switch-600-amp/20%Monthly2016-01-07 14:58
https://www.naswgr.net/2016/01/07/h362nrb-unused-surplus-square-d-h362nrb-heavy-duty-safety-switch/20%Monthly2016-01-07 14:16
https://www.naswgr.net/2016/01/06/ted136040-ge-ted136040-circuit-breaker-40-amp/20%Monthly2016-01-06 21:04
https://www.naswgr.net/2016/01/06/h361nds-unused-surplus-square-d-h361nds-heavy-duty-safety-switch/20%Monthly2016-01-06 20:33
https://www.naswgr.net/2016/01/06/avt-150e-ohio-semitronics-avt-150e-transducer/20%Monthly2016-01-06 20:31
https://www.naswgr.net/2016/01/06/17772/20%Monthly2016-01-06 20:28
https://www.naswgr.net/2016/01/06/hu362-unused-surplus-square-d-hu362-heavy-duty-safety-switch/20%Monthly2016-01-06 16:46
https://www.naswgr.net/2016/01/06/ic2820a100bb3f-ge-ic2820a100bb3f-relay-600-volt-10-amp-115120vdc/20%Monthly2016-01-06 16:10
https://www.naswgr.net/2016/01/06/hu363-unused-surplus-square-d-hu363-heavy-duty-safety-switch/20%Monthly2016-01-06 16:06
https://www.naswgr.net/2016/01/06/thss7625dg-ge-thss7625dg-circuit-breaker-powerbreak-2500-amp/20%Monthly2016-01-06 14:29
https://www.naswgr.net/2016/01/05/thss4612dg-ge-thss4612dg-circuit-breaker-powerbreak-1200-amp/20%Monthly2016-01-05 20:45
https://www.naswgr.net/2016/01/05/thss2602dg-ge-thss2602dg-circuit-breaker-powerbreak-200-amp/20%Monthly2016-01-05 18:29
https://www.naswgr.net/2016/01/05/thss2606dg-ge-thss2606dg-circuit-breaker-powerbreak-600-amp/20%Monthly2016-01-05 17:29
https://www.naswgr.net/2016/01/05/thss2604dge1-ge-thss2604dge1-circuit-breaker-powerbreak-400-amp/20%Monthly2016-01-05 16:56
https://www.naswgr.net/2016/01/05/thss4612dge1-ge-thss4612dge1-circuit-breaker-powerbreak-1200-amp/20%Monthly2016-01-05 15:27
https://www.naswgr.net/2016/01/04/thfp361-ge-thfp361-panelboard-switch-30-amp/20%Monthly2016-01-04 18:34
https://www.naswgr.net/2016/01/04/thfp361l-ge-thfp361l-panelboard-switch-30-amp/20%Monthly2016-01-04 18:05